Pagina principale
METAR-TAF:

METAR-TAF

Aeroporti :

Troyes, Francia

latitudine: 48-20N, longitudine: 004-01E, altezza: 118 m

Osservazione

Il bollettino è stato emesso 24 minuti fa, alle 22:30 UTC
Vento calmo
Temperature 11°C
Umidità 94%
Pressione 1021 hPa
Visibilità 10 km o più
nessuna nube inferiore a 1500 m e nessun cumulonembo

METAR: LFQB 162230Z AUTO 00000KT CAVOK 11/10 Q1021

Ora: 00:54 (22:54 UTC)


TAF: mancante

Osservazioni e previsioni meteorologiche di più di 4000 aeroporti (messaggi METAR e TAF).

Le stazioni disponibili sono rappresentate dai dischi gialli e rossi sulla carta.

Puntare il mouse per vedere il nome della stazione.

Clicca sopra per visualizzare le osservazioni e previsioni meteorologiche.

Per cambiare la mappa : fare clic sui pulsanti verdi con una croce nera per ingrandire, il pulsante verde con un trattino per diminuire, o sulla freccia verde per le mappe adiacenti.


METAR-TAF: